createdAt,value
2018-03-06T00:01:48.995Z,-1.30
2018-03-06T00:04:16.618Z,-1.41
2018-03-06T00:06:44.231Z,-1.44
2018-03-06T00:09:11.838Z,-1.43
2018-03-06T00:11:39.448Z,-1.44
2018-03-06T00:14:07.057Z,-1.41
2018-03-06T00:16:34.679Z,-1.44
2018-03-06T00:19:02.300Z,-1.47
2018-03-06T00:21:30.682Z,-1.48
2018-03-06T00:23:59.010Z,-1.48
2018-03-06T00:26:27.435Z,-1.53
2018-03-06T00:28:55.014Z,-1.53
2018-03-06T00:31:23.337Z,-1.46
2018-03-06T00:33:51.734Z,-1.48
2018-03-06T00:36:19.341Z,-1.51
2018-03-06T00:38:46.970Z,-1.46
2018-03-06T00:41:15.399Z,-1.50
2018-03-06T00:43:43.051Z,-1.54
2018-03-06T00:46:11.578Z,-1.58
2018-03-06T00:48:39.982Z,-1.62
2018-03-06T00:51:07.598Z,-1.64
2018-03-06T00:53:35.927Z,-1.66
2018-03-06T00:56:04.235Z,-1.66
2018-03-06T00:58:32.535Z,-1.66
2018-03-06T01:01:00.163Z,-1.66
2018-03-06T01:03:27.767Z,-1.62
2018-03-06T01:05:56.172Z,-1.68
2018-03-06T01:08:24.494Z,-1.73
2018-03-06T01:10:52.899Z,-1.69
2018-03-06T01:13:21.226Z,-1.69
2018-03-06T01:15:48.887Z,-1.63
2018-03-06T01:18:16.530Z,-1.68
2018-03-06T01:20:45.077Z,-1.77
2018-03-06T01:23:12.691Z,-1.78
2018-03-06T01:25:40.995Z,-1.79
2018-03-06T01:28:08.598Z,-1.83
2018-03-06T01:30:36.192Z,-1.84
2018-03-06T01:33:03.807Z,-1.90
2018-03-06T01:35:31.410Z,-1.86
2018-03-06T01:37:59.842Z,-1.87
2018-03-06T01:40:28.239Z,-1.76
2018-03-06T01:42:56.035Z,-1.88
2018-03-06T01:45:24.218Z,-1.88
2018-03-06T01:47:52.793Z,-1.91
2018-03-06T01:50:20.402Z,-1.90
2018-03-06T01:52:48.009Z,-1.92
2018-03-06T01:55:16.100Z,-1.96
2018-03-06T01:57:44.567Z,-1.97
2018-03-06T02:00:12.923Z,-1.99
2018-03-06T02:02:40.558Z,-1.96
2018-03-06T02:05:08.930Z,-1.98
2018-03-06T02:07:36.571Z,-2.04
2018-03-06T02:10:04.174Z,-2.03
2018-03-06T02:12:31.786Z,-2.09
2018-03-06T02:15:00.167Z,-2.05
2018-03-06T02:17:28.478Z,-2.09
2018-03-06T02:19:56.079Z,-2.04
2018-03-06T02:22:24.619Z,-2.01
2018-03-06T02:24:52.232Z,-2.06
2018-03-06T02:27:19.889Z,-2.08
2018-03-06T02:29:48.334Z,-2.09
2018-03-06T02:32:16.772Z,-2.06
2018-03-06T02:34:45.226Z,-2.13
2018-03-06T02:37:13.548Z,-2.13
2018-03-06T02:39:41.200Z,-2.16
2018-03-06T02:42:09.511Z,-2.17
2018-03-06T02:44:37.118Z,-2.21
2018-03-06T02:47:05.672Z,-2.26
2018-03-06T02:49:33.326Z,-2.21
2018-03-06T02:52:01.639Z,-2.19
2018-03-06T02:54:29.993Z,-2.18
2018-03-06T02:56:57.612Z,-2.21
2018-03-06T02:59:26.158Z,-2.23
2018-03-06T03:01:54.495Z,-2.25
2018-03-06T03:04:22.842Z,-2.30
2018-03-06T03:06:51.282Z,-2.25
2018-03-06T03:09:20.966Z,-2.33
2018-03-06T03:11:48.578Z,-2.24
2018-03-06T03:14:16.952Z,-2.22
2018-03-06T03:16:44.573Z,-2.32
2018-03-06T03:19:12.175Z,-2.26
2018-03-06T03:21:39.786Z,-2.21
2018-03-06T03:24:07.403Z,-2.27
2018-03-06T03:26:35.051Z,-2.16
2018-03-06T03:29:02.658Z,-2.37
2018-03-06T03:31:30.276Z,-2.45
2018-03-06T03:33:57.883Z,-2.50
2018-03-06T03:36:25.482Z,-2.51
2018-03-06T03:38:53.104Z,-2.54
2018-03-06T03:41:20.714Z,-2.40
2018-03-06T03:43:48.378Z,-2.51
2018-03-06T03:46:15.992Z,-2.34
2018-03-06T03:48:45.431Z,-2.44
2018-03-06T03:51:13.827Z,-2.48
2018-03-06T03:53:41.449Z,-2.48
2018-03-06T03:56:10.970Z,-2.52
2018-03-06T03:58:38.583Z,-2.63
2018-03-06T04:01:06.187Z,-2.53
2018-03-06T04:03:33.798Z,-2.66
2018-03-06T04:06:01.986Z,-2.73
2018-03-06T04:08:29.591Z,-2.76
2018-03-06T04:10:57.210Z,-2.69
2018-03-06T04:13:24.816Z,-2.72
2018-03-06T04:15:52.465Z,-2.69
2018-03-06T04:18:20.086Z,-2.68
2018-03-06T04:20:47.691Z,-2.69
2018-03-06T04:23:15.366Z,-2.78
2018-03-06T04:25:43.014Z,-2.76
2018-03-06T04:28:11.652Z,-2.82
2018-03-06T04:30:39.306Z,-2.77
2018-03-06T04:33:06.915Z,-2.75
2018-03-06T04:35:34.523Z,-2.79
2018-03-06T04:38:02.143Z,-2.81
2018-03-06T04:40:29.793Z,-2.87
2018-03-06T04:42:57.392Z,-2.88
2018-03-06T04:45:25.950Z,-2.88
2018-03-06T04:47:54.379Z,-2.75
2018-03-06T04:50:22.792Z,-2.82
2018-03-06T04:52:51.233Z,-2.84
2018-03-06T04:55:19.617Z,-2.70
2018-03-06T04:57:47.659Z,-2.83
2018-03-06T05:00:15.282Z,-2.86
2018-03-06T05:02:42.919Z,-2.78
2018-03-06T05:05:11.371Z,-2.87
2018-03-06T05:07:39.731Z,-2.77
2018-03-06T05:10:07.346Z,-2.80
2018-03-06T05:12:35.938Z,-2.79
2018-03-06T05:15:04.322Z,-2.89
2018-03-06T05:17:31.943Z,-2.82
2018-03-06T05:19:59.604Z,-2.82
2018-03-06T05:22:27.223Z,-2.87
2018-03-06T05:24:54.863Z,-2.87
2018-03-06T05:27:22.490Z,-2.85
2018-03-06T05:29:50.927Z,-2.91
2018-03-06T05:32:18.588Z,-2.89
2018-03-06T05:34:46.953Z,-2.90
2018-03-06T05:37:15.456Z,-2.91
2018-03-06T05:39:44.318Z,-2.87
2018-03-06T05:42:12.800Z,-2.83
2018-03-06T05:44:41.190Z,-2.83
2018-03-06T05:47:08.875Z,-2.85
2018-03-06T05:49:36.684Z,-2.84
2018-03-06T05:52:04.890Z,-2.83
2018-03-06T05:54:32.618Z,-2.79
2018-03-06T05:57:00.981Z,-2.75
2018-03-06T05:59:28.664Z,-2.80
2018-03-06T06:01:56.312Z,-2.68
2018-03-06T06:04:24.057Z,-2.76
2018-03-06T06:06:52.582Z,-2.69
2018-03-06T06:09:21.115Z,-2.61
2018-03-06T06:11:48.776Z,-2.57
2018-03-06T06:14:16.475Z,-2.62
2018-03-06T06:16:44.179Z,-2.58
2018-03-06T06:19:11.799Z,-2.50
2018-03-06T06:21:40.353Z,-2.47
2018-03-06T06:24:08.751Z,-2.44
2018-03-06T06:26:36.380Z,-2.48
2018-03-06T06:29:03.974Z,-2.41
2018-03-06T06:31:32.513Z,-2.36
2018-03-06T06:34:00.103Z,-2.21
2018-03-06T06:36:27.733Z,-2.12
2018-03-06T06:38:55.332Z,-2.04
2018-03-06T06:41:23.136Z,-1.98
2018-03-06T06:43:50.728Z,-1.92
2018-03-06T06:46:18.320Z,-1.80
2018-03-06T06:48:45.943Z,-1.80
2018-03-06T06:51:13.536Z,-1.72
2018-03-06T06:53:41.130Z,-1.59
2018-03-06T06:56:08.714Z,-1.51
2018-03-06T06:58:37.298Z,-1.44
2018-03-06T07:01:04.887Z,-1.31
2018-03-06T07:03:32.471Z,-1.26
2018-03-06T07:06:00.094Z,-1.15
2018-03-06T07:08:27.719Z,-1.13
2018-03-06T07:10:55.317Z,-1.02
2018-03-06T07:13:22.921Z,-0.98
2018-03-06T07:15:50.505Z,-0.84
2018-03-06T07:18:18.134Z,-0.70
2018-03-06T07:20:45.728Z,-0.60
2018-03-06T07:23:13.350Z,-0.62
2018-03-06T07:25:40.947Z,-0.52
2018-03-06T07:28:08.571Z,-0.32
2018-03-06T07:30:36.154Z,-0.36
2018-03-06T07:33:03.748Z,-0.21
2018-03-06T07:35:31.362Z,0.02
2018-03-06T07:37:58.949Z,0.09
2018-03-06T07:40:27.339Z,0.13
2018-03-06T07:42:55.710Z,0.24
2018-03-06T07:45:23.341Z,0.48
2018-03-06T07:47:50.959Z,0.49
2018-03-06T07:50:18.542Z,0.53
2018-03-06T07:52:46.135Z,0.63
2018-03-06T07:55:13.760Z,0.53
2018-03-06T07:57:41.342Z,0.61
2018-03-06T08:00:08.979Z,0.62
2018-03-06T08:02:36.559Z,0.70
2018-03-06T08:05:04.165Z,0.84
2018-03-06T08:07:31.759Z,0.85
2018-03-06T08:09:59.358Z,0.94
2018-03-06T08:12:26.944Z,0.78
2018-03-06T08:14:55.499Z,0.91
2018-03-06T08:17:23.890Z,1.03
2018-03-06T08:19:52.427Z,0.94
2018-03-06T08:22:20.806Z,1.14
2018-03-06T08:24:48.422Z,1.17
2018-03-06T08:27:16.011Z,1.31
2018-03-06T08:29:44.340Z,1.53
2018-03-06T08:32:12.844Z,1.37
2018-03-06T08:34:40.433Z,1.41
2018-03-06T08:37:08.959Z,1.48
2018-03-06T08:39:37.331Z,1.73
2018-03-06T08:42:04.927Z,1.81
2018-03-06T08:44:33.370Z,2.09
2018-03-06T08:47:00.952Z,2.01
2018-03-06T08:49:28.571Z,2.10
2018-03-06T08:51:56.155Z,2.21
2018-03-06T08:54:23.742Z,2.24
2018-03-06T08:56:51.354Z,2.52
2018-03-06T08:59:18.932Z,2.50
2018-03-06T09:01:46.518Z,2.53
2018-03-06T09:04:14.098Z,2.73
2018-03-06T09:06:41.710Z,2.69
2018-03-06T09:09:09.285Z,2.83
2018-03-06T09:11:36.907Z,2.87
2018-03-06T09:14:04.494Z,3.07
2018-03-06T09:16:32.079Z,3.07
2018-03-06T09:19:00.443Z,3.28
2018-03-06T09:21:28.026Z,3.34
2018-03-06T09:23:55.607Z,3.45
2018-03-06T09:26:23.196Z,3.68
2018-03-06T09:28:50.783Z,3.73
2018-03-06T09:31:18.367Z,3.87
2018-03-06T09:33:45.943Z,4.09
2018-03-06T09:36:13.523Z,4.28
2018-03-06T09:38:41.098Z,4.43
2018-03-06T09:41:08.674Z,4.35
2018-03-06T09:43:36.247Z,4.54
2018-03-06T09:46:03.831Z,4.64
2018-03-06T09:48:31.406Z,4.82
2018-03-06T09:50:59.894Z,4.76
2018-03-06T09:53:27.466Z,4.86
2018-03-06T09:55:55.051Z,5.09
2018-03-06T09:58:22.631Z,4.96
2018-03-06T10:00:50.210Z,5.07
2018-03-06T10:03:17.820Z,5.08
2018-03-06T10:05:45.394Z,5.30
2018-03-06T10:08:13.760Z,5.45
2018-03-06T10:10:41.342Z,5.62
2018-03-06T10:13:08.918Z,5.63
2018-03-06T10:15:36.498Z,5.70
2018-03-06T10:18:04.078Z,5.64
2018-03-06T10:20:31.698Z,5.98
2018-03-06T10:22:59.287Z,6.04
2018-03-06T10:25:26.862Z,5.95
2018-03-06T10:27:54.463Z,6.23
2018-03-06T10:30:22.043Z,6.17
2018-03-06T10:32:49.632Z,6.31
2018-03-06T10:35:17.228Z,6.16
2018-03-06T10:37:44.828Z,6.26
2018-03-06T10:40:12.404Z,6.07
2018-03-06T10:42:39.988Z,6.30
2018-03-06T10:45:07.560Z,6.65
2018-03-06T10:47:35.142Z,6.73
2018-03-06T10:50:02.723Z,6.84
2018-03-06T10:52:30.307Z,6.79
2018-03-06T10:54:57.892Z,6.98
2018-03-06T10:57:25.463Z,6.68
2018-03-06T10:59:53.041Z,6.66
2018-03-06T11:02:20.618Z,6.71
2018-03-06T11:04:48.194Z,6.63
2018-03-06T11:07:15.778Z,6.68
2018-03-06T11:09:43.362Z,6.95
2018-03-06T11:12:10.943Z,6.87
2018-03-06T11:14:38.553Z,6.83
2018-03-06T11:17:06.148Z,6.98
2018-03-06T11:19:33.731Z,6.94
2018-03-06T11:22:01.311Z,6.94
2018-03-06T11:24:28.923Z,7.03
2018-03-06T11:26:56.499Z,7.25
2018-03-06T11:29:24.106Z,7.14
2018-03-06T11:31:51.688Z,7.04
2018-03-06T11:34:19.307Z,7.32
2018-03-06T11:36:46.887Z,7.33
2018-03-06T11:39:14.475Z,7.54
2018-03-06T11:41:42.055Z,7.70
2018-03-06T11:44:09.640Z,7.46
2018-03-06T11:46:37.224Z,7.46
2018-03-06T11:49:04.811Z,7.12
2018-03-06T11:51:32.390Z,7.03
2018-03-06T11:53:59.972Z,7.42
2018-03-06T11:56:27.560Z,7.61
2018-03-06T11:58:55.191Z,7.61
2018-03-06T12:01:22.807Z,7.55
2018-03-06T12:03:50.383Z,7.48
2018-03-06T12:06:17.962Z,7.24
2018-03-06T12:08:45.543Z,7.11
2018-03-06T12:11:13.122Z,7.28
2018-03-06T12:13:40.722Z,7.28
2018-03-06T12:16:08.304Z,7.17
2018-03-06T12:18:35.924Z,7.18
2018-03-06T12:21:03.492Z,7.19
2018-03-06T12:23:31.076Z,7.56
2018-03-06T12:25:58.651Z,7.76
2018-03-06T12:28:26.227Z,7.61
2018-03-06T12:30:53.805Z,7.67
2018-03-06T12:33:21.390Z,7.82
2018-03-06T12:35:48.974Z,7.65
2018-03-06T12:38:17.463Z,7.67
2018-03-06T12:40:45.040Z,7.89
2018-03-06T12:43:12.615Z,7.93
2018-03-06T12:45:40.202Z,7.64
2018-03-06T12:48:07.788Z,7.40
2018-03-06T12:50:35.372Z,7.42
2018-03-06T12:53:03.735Z,7.37
2018-03-06T12:55:31.324Z,7.57
2018-03-06T12:57:58.898Z,7.72
2018-03-06T13:00:26.478Z,7.53
2018-03-06T13:02:54.058Z,7.46
2018-03-06T13:05:21.637Z,7.62
2018-03-06T13:07:49.218Z,7.61
2018-03-06T13:10:16.799Z,7.41
2018-03-06T13:12:44.414Z,7.53
2018-03-06T13:15:12.769Z,7.77
2018-03-06T13:17:40.348Z,7.71
2018-03-06T13:20:07.930Z,7.52
2018-03-06T13:22:35.547Z,7.51
2018-03-06T13:25:03.139Z,7.60
2018-03-06T13:27:30.718Z,7.56
2018-03-06T13:29:58.309Z,7.68
2018-03-06T13:32:25.894Z,7.64
2018-03-06T13:34:53.483Z,7.57
2018-03-06T13:37:21.108Z,7.53
2018-03-06T13:39:48.709Z,7.47
2018-03-06T13:42:16.307Z,7.28
2018-03-06T13:44:44.779Z,7.15
2018-03-06T13:47:12.359Z,7.21
2018-03-06T13:49:39.949Z,7.02
2018-03-06T13:52:07.535Z,7.02
2018-03-06T13:54:35.149Z,7.11
2018-03-06T13:57:02.734Z,7.09
2018-03-06T13:59:30.469Z,7.07
2018-03-06T14:01:58.054Z,7.04
2018-03-06T14:04:25.643Z,6.84
2018-03-06T14:06:53.220Z,6.73
2018-03-06T14:09:20.799Z,6.80
2018-03-06T14:11:48.385Z,6.60
2018-03-06T14:14:15.959Z,6.42
2018-03-06T14:16:43.539Z,6.44
2018-03-06T14:19:11.124Z,6.20
2018-03-06T14:21:38.715Z,6.25
2018-03-06T14:24:06.298Z,6.32
2018-03-06T14:26:33.886Z,6.31
2018-03-06T14:29:01.467Z,6.39
2018-03-06T14:31:29.087Z,6.25
2018-03-06T14:33:56.666Z,6.20
2018-03-06T14:36:24.252Z,5.99
2018-03-06T14:38:51.831Z,5.97
2018-03-06T14:41:19.452Z,5.92
2018-03-06T14:43:47.046Z,5.78
2018-03-06T14:46:14.623Z,5.79
2018-03-06T14:48:42.210Z,5.74
2018-03-06T14:51:09.815Z,5.64
2018-03-06T14:53:38.195Z,5.79
2018-03-06T14:56:05.774Z,5.54
2018-03-06T14:58:33.380Z,5.23
2018-03-06T15:01:01.756Z,5.03
2018-03-06T15:03:29.338Z,4.93
2018-03-06T15:05:56.923Z,4.64
2018-03-06T15:08:24.511Z,4.35
2018-03-06T15:10:52.095Z,4.10
2018-03-06T15:13:19.692Z,4.08
2018-03-06T15:15:47.275Z,3.82
2018-03-06T15:18:14.850Z,3.43
2018-03-06T15:20:42.427Z,3.34
2018-03-06T15:23:10.012Z,3.18
2018-03-06T15:25:37.595Z,2.96
2018-03-06T15:28:05.892Z,2.82
2018-03-06T15:30:33.487Z,2.84
2018-03-06T15:33:02.031Z,2.72
2018-03-06T15:35:30.343Z,2.66
2018-03-06T15:37:57.919Z,2.53
2018-03-06T15:40:25.535Z,2.53
2018-03-06T15:42:53.126Z,2.47
2018-03-06T15:45:20.710Z,2.33
2018-03-06T15:47:48.294Z,2.26
2018-03-06T15:50:16.906Z,2.09
2018-03-06T15:52:44.527Z,2.21
2018-03-06T15:55:12.112Z,2.12
2018-03-06T15:57:39.695Z,2.39
2018-03-06T16:00:08.195Z,2.22
2018-03-06T16:02:35.908Z,2.26
2018-03-06T16:05:04.199Z,1.99
2018-03-06T16:07:31.779Z,1.89
2018-03-06T16:09:59.410Z,1.85
2018-03-06T16:12:27.004Z,1.88
2018-03-06T16:14:54.587Z,1.82
2018-03-06T16:17:22.171Z,1.92
2018-03-06T16:19:52.007Z,1.78
2018-03-06T16:22:22.492Z,1.64
2018-03-06T16:24:52.993Z,1.58
2018-03-06T16:27:23.523Z,1.58
2018-03-06T16:29:52.161Z,1.59
2018-03-06T16:32:19.815Z,1.53
2018-03-06T16:34:47.418Z,1.42
2018-03-06T16:37:15.003Z,1.35
2018-03-06T16:39:43.512Z,1.29
2018-03-06T16:42:11.912Z,1.32
2018-03-06T16:44:40.510Z,1.40
2018-03-06T16:47:08.135Z,1.44
2018-03-06T16:49:35.717Z,1.56
2018-03-06T16:52:03.303Z,1.58
2018-03-06T16:54:30.916Z,1.68
2018-03-06T16:56:58.554Z,1.63
2018-03-06T16:59:26.235Z,1.54
2018-03-06T17:01:53.967Z,1.55
2018-03-06T17:04:21.566Z,1.49
2018-03-06T17:06:49.179Z,1.42
2018-03-06T17:09:16.765Z,1.36
2018-03-06T17:11:44.447Z,1.45
2018-03-06T17:14:12.026Z,1.38
2018-03-06T17:16:39.608Z,1.42
2018-03-06T17:19:07.195Z,1.55
2018-03-06T17:21:34.779Z,1.52
2018-03-06T17:24:02.376Z,1.50
2018-03-06T17:26:29.961Z,1.62
2018-03-06T17:28:57.558Z,1.66
2018-03-06T17:31:25.955Z,1.51
2018-03-06T17:33:54.453Z,1.44
2018-03-06T17:36:23.109Z,1.37
2018-03-06T17:38:50.708Z,1.31
2018-03-06T17:41:19.298Z,1.54
2018-03-06T17:43:46.968Z,1.44
2018-03-06T17:46:14.556Z,1.57
2018-03-06T17:48:42.439Z,1.57
2018-03-06T17:51:10.089Z,1.52
2018-03-06T17:53:38.271Z,1.52
2018-03-06T17:56:05.850Z,1.46
2018-03-06T17:58:33.435Z,1.48
2018-03-06T18:01:01.278Z,1.55
2018-03-06T18:03:29.790Z,1.65
2018-03-06T18:05:57.494Z,1.52
2018-03-06T18:08:25.163Z,1.47
2018-03-06T18:10:52.755Z,1.56
2018-03-06T18:13:20.390Z,1.59
2018-03-06T18:15:48.035Z,1.48
2018-03-06T18:18:19.409Z,1.52
2018-03-06T18:20:47.170Z,1.49
2018-03-06T18:23:14.760Z,1.46
2018-03-06T18:25:42.911Z,1.35
2018-03-06T18:28:10.640Z,1.50
2018-03-06T18:30:38.230Z,1.54
2018-03-06T18:33:05.819Z,1.51
2018-03-06T18:35:34.104Z,1.44
2018-03-06T18:38:03.634Z,1.54
2018-03-06T18:40:31.300Z,1.55
2018-03-06T18:42:58.947Z,1.69
2018-03-06T18:45:27.468Z,1.58
2018-03-06T18:47:55.080Z,1.56
2018-03-06T18:50:34.910Z,1.67
2018-03-06T18:53:02.507Z,1.68
2018-03-06T18:55:30.998Z,1.52
2018-03-06T18:57:58.591Z,1.56
2018-03-06T19:03:46.007Z,1.57
2018-03-06T19:06:22.387Z,1.78
2018-03-06T19:08:49.975Z,1.64
2018-03-06T19:11:17.578Z,1.66
2018-03-06T19:13:45.176Z,1.67
2018-03-06T19:16:13.562Z,1.62
2018-03-06T19:18:41.136Z,1.54
2018-03-06T19:21:08.725Z,1.69
2018-03-06T19:23:36.399Z,1.63
2018-03-06T19:26:03.984Z,1.68
2018-03-06T19:28:31.613Z,1.66
2018-03-06T19:30:59.210Z,1.61
2018-03-06T19:33:26.855Z,1.60
2018-03-06T19:35:55.207Z,1.51
2018-03-06T19:38:23.758Z,1.45
2018-03-06T19:40:51.347Z,1.52
2018-03-06T19:43:18.925Z,1.35
2018-03-06T19:45:47.300Z,1.36
2018-03-06T19:48:14.891Z,1.44
2018-03-06T19:50:43.207Z,1.50
2018-03-06T19:53:11.609Z,1.47
2018-03-06T19:55:40.199Z,1.49
2018-03-06T19:58:07.883Z,1.47
2018-03-06T20:00:35.453Z,1.41
2018-03-06T20:03:03.051Z,1.44
2018-03-06T20:05:30.674Z,1.43
2018-03-06T20:07:58.287Z,1.52
2018-03-06T20:10:25.870Z,1.41
2018-03-06T20:12:53.502Z,1.46
2018-03-06T20:15:21.987Z,1.42
2018-03-06T20:17:49.602Z,1.58
2018-03-06T20:20:17.183Z,1.56
2018-03-06T20:22:45.672Z,1.59
2018-03-06T20:25:19.132Z,1.52
2018-03-06T20:27:46.711Z,1.47
2018-03-06T20:30:19.999Z,1.47
2018-03-06T20:32:53.385Z,1.51
2018-03-06T20:35:21.051Z,1.65
2018-03-06T20:37:49.585Z,1.58
2018-03-06T20:40:22.690Z,1.55
2018-03-06T20:42:51.132Z,1.57
2018-03-06T20:45:18.900Z,1.56
2018-03-06T20:47:46.539Z,1.66
2018-03-06T20:50:14.247Z,1.47
2018-03-06T20:52:47.618Z,1.48
2018-03-06T20:55:15.262Z,1.49
2018-03-06T20:57:42.876Z,1.53
2018-03-06T21:00:10.486Z,1.46
2018-03-06T21:02:38.103Z,1.52
2018-03-06T21:05:05.711Z,1.50
2018-03-06T21:07:33.375Z,1.49
2018-03-06T21:10:00.953Z,1.43
2018-03-06T21:12:28.539Z,1.48
2018-03-06T21:14:56.138Z,1.28
2018-03-06T21:17:23.719Z,1.24
2018-03-06T21:19:51.303Z,1.26
2018-03-06T21:22:18.889Z,1.34
2018-03-06T21:24:46.482Z,1.35
2018-03-06T21:27:14.071Z,1.40
2018-03-06T21:29:41.667Z,1.34
2018-03-06T21:32:09.282Z,1.37
2018-03-06T21:34:36.902Z,1.44
2018-03-06T21:37:04.518Z,1.54
2018-03-06T21:39:32.131Z,1.53
2018-03-06T21:41:59.754Z,1.39
2018-03-06T21:44:27.353Z,1.55
2018-03-06T21:46:54.975Z,1.49
2018-03-06T21:49:23.299Z,1.49
2018-03-06T21:51:51.961Z,1.45
2018-03-06T21:54:20.567Z,1.46
2018-03-06T21:56:48.987Z,1.52
2018-03-06T21:59:16.577Z,1.49
2018-03-06T22:01:44.166Z,1.55
2018-03-06T22:04:11.747Z,1.51
2018-03-06T22:06:39.327Z,1.58
2018-03-06T22:09:06.908Z,1.53
2018-03-06T22:11:34.550Z,1.55
2018-03-06T22:14:02.249Z,1.55
2018-03-06T22:16:30.604Z,1.45
2018-03-06T22:18:58.186Z,1.57
2018-03-06T22:21:25.827Z,1.67
2018-03-06T22:23:53.420Z,1.52
2018-03-06T22:26:21.042Z,1.47
2018-03-06T22:28:48.619Z,1.53
2018-03-06T22:31:16.243Z,1.59
2018-03-06T22:33:43.879Z,1.43
2018-03-06T22:36:11.471Z,1.60
2018-03-06T22:38:39.057Z,1.56
2018-03-06T22:41:06.648Z,1.53
2018-03-06T22:43:34.230Z,1.36
2018-03-06T22:46:02.636Z,1.44
2018-03-06T22:48:30.216Z,1.62
2018-03-06T22:50:57.842Z,1.47
2018-03-06T22:53:25.428Z,1.49
2018-03-06T22:55:53.196Z,1.49
2018-03-06T22:58:20.780Z,1.37
2018-03-06T23:00:49.211Z,1.35
2018-03-06T23:03:17.651Z,1.55
2018-03-06T23:05:46.070Z,1.44
2018-03-06T23:08:14.366Z,1.35
2018-03-06T23:10:42.795Z,1.38
2018-03-06T23:13:10.435Z,1.43
2018-03-06T23:15:38.023Z,1.34
2018-03-06T23:18:05.615Z,1.52
2018-03-06T23:20:34.128Z,1.62
2018-03-06T23:23:02.499Z,1.50
2018-03-06T23:25:30.082Z,1.54
2018-03-06T23:27:58.587Z,1.47
2018-03-06T23:30:26.943Z,1.46
2018-03-06T23:32:54.567Z,1.57
2018-03-06T23:35:23.078Z,1.41
2018-03-06T23:37:51.347Z,1.49
2018-03-06T23:46:00.146Z,1.58
2018-03-06T23:48:27.691Z,1.61
2018-03-06T23:50:55.286Z,1.48
2018-03-06T23:53:22.834Z,1.48
2018-03-06T23:55:51.186Z,1.52
2018-03-06T23:58:19.582Z,1.53
